Time;durP1;ratioP1;P1;durP2;ratioP2;P2;SDS_P1;SDS_P2;PMS_P1;PMS_P2;Temp;Humidity;BMP_temperature;BMP_pressure;BME280_temperature;BME280_humidity;BME280_pressure;Samples;Min_cycle;Max_cycle;Signal;HPM_P1;HPM_P2
2021/05/22 00:02:13;;;;;;;8.73;1.65;;;12.30;87.60;;;;;;6068886;23;20050;-85
2021/05/22 00:04:40;;;;;;;12.30;1.95;;;12.20;88.10;;;;;;6069016;23;20101;-85
2021/05/22 00:07:08;;;;;;;9.65;1.10;;;12.20;88.90;;;;;;6070351;23;20501;-85
2021/05/22 00:09:35;;;;;;;8.63;1.20;;;12.10;88.70;;;;;;6070116;23;20030;-85
2021/05/22 00:12:02;;;;;;;18.08;2.08;;;12.20;89.10;;;;;;6072046;23;20024;-86
2021/05/22 00:14:29;;;;;;;9.65;1.40;;;12.10;88.90;;;;;;6070362;23;20105;-87
2021/05/22 00:16:56;;;;;;;12.32;1.83;;;12.10;89.50;;;;;;6073587;23;20037;-86
2021/05/22 00:19:22;;;;;;;11.10;1.98;;;12.10;89.60;;;;;;6061244;23;20017;-86
2021/05/22 00:21:49;;;;;;;9.73;1.67;;;12.10;89.80;;;;;;6075151;23;20045;-86
2021/05/22 00:24:16;;;;;;;16.55;1.70;;;12.10;90.00;;;;;;6078898;23;20026;-85
2021/05/22 00:26:43;;;;;;;8.35;1.70;;;12.10;90.10;;;;;;6084251;23;20030;-86
2021/05/22 00:29:09;;;;;;;18.45;1.67;;;12.10;90.30;;;;;;6087603;23;20078;-86
2021/05/22 00:31:36;;;;;;;10.65;1.73;;;12.10;90.20;;;;;;6083924;23;20026;-85
2021/05/22 00:34:03;;;;;;;10.15;1.67;;;12.20;90.20;;;;;;6085392;23;20037;-86
2021/05/22 00:36:30;;;;;;;7.65;1.25;;;12.20;90.40;;;;;;6084524;23;20026;-84
2021/05/22 00:38:57;;;;;;;8.77;1.27;;;12.20;90.30;;;;;;6083699;23;20029;-85
2021/05/22 00:41:24;;;;;;;13.88;1.63;;;12.20;90.40;;;;;;6068705;23;20447;-85
2021/05/22 00:43:51;;;;;;;9.20;1.48;;;12.20;90.50;;;;;;6097349;23;20082;-85
2021/05/22 00:46:18;;;;;;;13.23;2.08;;;12.20;90.50;;;;;;6070963;23;20046;-85
2021/05/22 00:48:44;;;;;;;9.55;1.40;;;12.20;90.50;;;;;;6070973;23;20026;-85
2021/05/22 00:51:11;;;;;;;8.13;1.73;;;12.20;90.40;;;;;;6062468;23;20504;-85
2021/05/22 00:53:38;;;;;;;9.25;1.83;;;12.20;90.60;;;;;;6067086;23;20058;-84
2021/05/22 00:56:05;;;;;;;10.68;1.40;;;12.20;90.50;;;;;;6067199;23;20773;-86
2021/05/22 00:58:34;;;;;;;8.15;1.25;;;12.20;90.60;;;;;;6092312;23;20056;-85
2021/05/22 01:01:00;;;;;;;8.18;1.13;;;12.20;90.80;;;;;;6070490;23;20022;-86
2021/05/22 01:03:31;;;;;;;14.88;0.80;;;12.10;91.10;;;;;;6066931;23;20045;-85
2021/05/22 01:06:13;;;;;;;8.48;2.13;;;12.10;91.60;;;;;;6068302;23;20049;-86
2021/05/22 01:08:44;;;;;;;8.20;1.90;;;12.10;92.10;;;;;;6068065;23;20029;-86
2021/05/22 01:11:24;;;;;;;11.75;1.73;;;12.10;92.80;;;;;;6069189;23;20026;-85
2021/05/22 01:13:59;;;;;;;5.63;1.08;;;12.00;94.60;;;;;;6052772;23;20154;-85
2021/05/22 01:16:26;;;;;;;3.58;0.82;;;11.80;96.10;;;;;;6066940;23;20527;-85
2021/05/22 01:18:54;;;;;;;8.80;1.00;;;11.70;97.40;;;;;;6068410;23;20041;-85
2021/05/22 01:21:22;;;;;;;8.63;1.20;;;11.60;98.60;;;;;;6059379;23;20037;-85
2021/05/22 01:24:12;;;;;;;6.15;0.90;;;11.60;99.90;;;;;;6074666;23;20029;-86
2021/05/22 01:26:41;;;;;;;11.05;0.95;;;11.50;99.90;;;;;;6071951;23;20027;-85
2021/05/22 01:29:08;;;;;;;9.32;1.17;;;11.50;99.90;;;;;;6066421;23;20101;-85
2021/05/22 01:31:36;;;;;;;7.18;2.17;;;11.40;99.90;;;;;;6057943;23;20109;-86
2021/05/22 01:34:03;;;;;;;8.23;1.15;;;11.50;99.90;;;;;;6067505;23;20105;-84
2021/05/22 01:36:29;;;;;;;6.32;1.58;;;11.50;99.90;;;;;;6068192;23;20050;-84
2021/05/22 01:38:56;;;;;;;8.50;1.30;;;11.50;99.90;;;;;;6068615;23;20030;-85
2021/05/22 01:41:23;;;;;;;6.07;1.33;;;11.50;99.90;;;;;;6093083;23;20025;-85
2021/05/22 01:43:56;;;;;;;11.35;1.35;;;11.40;99.90;;;;;;6069314;23;20076;-85
2021/05/22 01:46:24;;;;;;;5.70;1.23;;;11.40;99.90;;;;;;6067652;23;20356;-85
2021/05/22 01:48:54;;;;;;;7.25;2.10;;;11.40;99.90;;;;;;6067670;23;20105;-85
2021/05/22 01:51:24;;;;;;;12.20;1.70;;;11.30;99.90;;;;;;6095991;23;21394;-86
2021/05/22 01:53:52;;;;;;;5.50;1.80;;;11.30;99.90;;;;;;6069829;23;20090;-86
2021/05/22 01:56:20;;;;;;;7.60;1.30;;;11.30;99.90;;;;;;6067587;23;20113;-87
2021/05/22 01:58:47;;;;;;;5.88;1.10;;;11.30;99.90;;;;;;6067304;23;20081;-86
2021/05/22 02:01:14;;;;;;;5.47;1.20;;;11.20;99.90;;;;;;6076405;23;20077;-86
2021/05/22 02:03:47;;;;;;;7.43;1.00;;;11.20;99.90;;;;;;6066859;23;20113;-86
2021/05/22 02:06:25;;;;;;;6.05;1.10;;;11.20;99.90;;;;;;6065775;23;20097;-85
2021/05/22 02:09:00;;;;;;;7.78;1.98;;;11.20;99.90;;;;;;6063589;23;20053;-86
2021/05/22 02:11:31;;;;;;;12.07;1.30;;;11.20;99.90;;;;;;6052672;23;20428;-86
2021/05/22 02:14:01;;;;;;;9.20;1.23;;;11.30;99.90;;;;;;6065175;23;20026;-86
2021/05/22 02:16:31;;;;;;;9.27;1.10;;;11.30;99.90;;;;;;6065194;23;20046;-86
2021/05/22 02:18:59;;;;;;;6.65;1.42;;;11.30;99.90;;;;;;6065745;23;20057;-86
2021/05/22 02:21:29;;;;;;;8.23;1.63;;;11.30;99.90;;;;;;6043566;23;20042;-86
2021/05/22 02:23:57;;;;;;;9.02;1.27;;;11.30;99.90;;;;;;6065274;23;20022;-85
2021/05/22 02:26:26;;;;;;;8.13;2.33;;;11.30;99.90;;;;;;6065601;23;20117;-86
2021/05/22 02:28:54;;;;;;;4.85;1.30;;;11.30;99.90;;;;;;6044384;23;20045;-86
2021/05/22 02:31:26;;;;;;;4.55;1.00;;;11.30;99.90;;;;;;6068434;23;20097;-85
2021/05/22 02:33:58;;;;;;;7.25;0.93;;;11.20;99.90;;;;;;6069791;23;20093;-85
2021/05/22 02:36:25;;;;;;;9.25;1.40;;;11.10;99.90;;;;;;6068152;23;20026;-85
2021/05/22 02:38:53;;;;;;;5.00;0.93;;;11.00;99.90;;;;;;6067080;23;20037;-85
2021/05/22 02:41:21;;;;;;;11.88;1.50;;;11.00;99.90;;;;;;6068335;23;20026;-86
2021/05/22 02:43:53;;;;;;;13.23;1.42;;;10.90;99.90;;;;;;6067703;23;20026;-85
2021/05/22 02:46:21;;;;;;;4.95;1.25;;;10.90;99.90;;;;;;6094223;23;20520;-85
2021/05/22 02:48:50;;;;;;;6.35;1.45;;;10.90;99.90;;;;;;6067763;23;20038;-85
2021/05/22 02:51:21;;;;;;;5.75;1.70;;;10.80;99.90;;;;;;6092073;23;20022;-85
2021/05/22 02:53:49;;;;;;;10.52;1.65;;;10.80;99.90;;;;;;6090505;23;20046;-86
2021/05/22 02:56:17;;;;;;;7.22;1.92;;;10.70;99.90;;;;;;6068043;23;20098;-85
2021/05/22 02:58:45;;;;;;;8.43;1.20;;;10.60;99.90;;;;;;6066986;23;20102;-85
2021/05/22 03:01:12;;;;;;;11.20;1.80;;;10.60;99.90;;;;;;6070212;23;20054;-85
2021/05/22 03:03:40;;;;;;;7.93;2.15;;;10.50;99.90;;;;;;6068453;23;20046;-85
2021/05/22 03:06:07;;;;;;;9.20;1.63;;;10.40;99.90;;;;;;6069076;23;20019;-85
2021/05/22 03:08:49;;;;;;;8.50;1.15;;;10.40;99.90;;;;;;6065783;23;20029;-86
2021/05/22 03:11:18;;;;;;;6.63;1.20;;;10.40;99.90;;;;;;6068268;23;20471;-86
2021/05/22 03:13:46;;;;;;;9.85;1.20;;;10.40;99.90;;;;;;6067240;23;20018;-86
2021/05/22 03:16:13;;;;;;;5.82;1.38;;;10.30;99.90;;;;;;6070031;23;20093;-86
2021/05/22 03:18:40;;;;;;;10.43;1.65;;;10.30;99.90;;;;;;6067757;23;20074;-86
2021/05/22 03:21:08;;;;;;;7.13;1.13;;;10.30;99.90;;;;;;6066858;23;20109;-86
2021/05/22 03:23:37;;;;;;;4.13;1.50;;;10.30;99.90;;;;;;6067140;23;20026;-84
2021/05/22 03:26:05;;;;;;;11.30;1.25;;;10.30;99.90;;;;;;6089419;23;20061;-84
2021/05/22 03:28:32;;;;;;;7.32;2.08;;;10.20;99.90;;;;;;6066069;23;20081;-84
2021/05/22 03:30:59;;;;;;;5.25;1.42;;;10.20;99.90;;;;;;6067348;23;20006;-83
2021/05/22 03:33:25;;;;;;;7.53;1.90;;;10.10;99.90;;;;;;6066677;23;20539;-84
2021/05/22 03:35:52;;;;;;;8.60;2.10;;;10.10;99.90;;;;;;6065627;23;20026;-84
2021/05/22 03:38:19;;;;;;;2.65;1.48;;;10.00;99.90;;;;;;6066602;23;20050;-84
2021/05/22 03:40:48;;;;;;;6.07;1.75;;;10.00;99.90;;;;;;6068928;23;20034;-84
2021/05/22 03:43:15;;;;;;;7.43;1.77;;;10.00;99.90;;;;;;6091652;23;20448;-85
2021/05/22 03:45:41;;;;;;;3.47;1.63;;;9.90;99.90;;;;;;6067052;23;20102;-85
2021/05/22 03:48:08;;;;;;;4.45;1.45;;;9.90;99.90;;;;;;6067198;23;20515;-85
2021/05/22 03:50:35;;;;;;;8.25;2.40;;;9.80;99.90;;;;;;6068330;23;20498;-85
2021/05/22 03:53:02;;;;;;;4.82;1.63;;;9.80;99.90;;;;;;6064651;23;20299;-85
2021/05/22 03:55:30;;;;;;;7.18;1.85;;;9.80;99.90;;;;;;6066046;23;20093;-85
2021/05/22 03:57:59;;;;;;;13.07;2.55;;;9.70;99.90;;;;;;6053053;23;20037;-85
2021/05/22 04:00:25;;;;;;;6.18;2.40;;;9.70;99.90;;;;;;6067313;23;20053;-86
2021/05/22 04:02:52;;;;;;;6.97;2.25;;;9.70;99.90;;;;;;6043599;23;20530;-85
2021/05/22 04:05:19;;;;;;;6.30;1.73;;;9.70;99.90;;;;;;6052193;23;20022;-85
2021/05/22 04:07:46;;;;;;;4.55;1.60;;;9.60;99.90;;;;;;6066011;23;20097;-85
2021/05/22 04:10:13;;;;;;;7.75;2.67;;;9.60;99.90;;;;;;6066606;23;20412;-84
2021/05/22 04:12:40;;;;;;;5.32;2.58;;;9.60;99.90;;;;;;6063117;23;20026;-85
2021/05/22 04:15:12;;;;;;;6.13;2.28;;;9.60;99.90;;;;;;6066928;23;20010;-84
2021/05/22 04:17:38;;;;;;;5.20;2.00;;;9.60;99.90;;;;;;6065946;23;20071;-84
2021/05/22 04:20:06;;;;;;;7.03;2.72;;;9.60;99.90;;;;;;6067619;23;20093;-85
2021/05/22 04:22:34;;;;;;;5.97;2.85;;;9.60;99.90;;;;;;6069523;23;20022;-84
2021/05/22 04:25:00;;;;;;;7.80;3.05;;;9.50;99.90;;;;;;6068257;23;20023;-86
2021/05/22 04:27:27;;;;;;;12.18;3.58;;;9.60;99.90;;;;;;6066009;23;20069;-84
2021/05/22 04:29:54;;;;;;;10.82;3.55;;;9.50;99.90;;;;;;6069792;23;20030;-86
2021/05/22 04:32:22;;;;;;;10.50;3.22;;;9.50;99.90;;;;;;6052362;23;20050;-84
2021/05/22 04:34:49;;;;;;;5.75;2.50;;;9.50;99.90;;;;;;6055661;23;20018;-85
2021/05/22 04:37:16;;;;;;;7.90;2.30;;;9.50;99.90;;;;;;6065214;23;20033;-84
2021/05/22 04:39:43;;;;;;;8.13;3.08;;;9.50;99.90;;;;;;6070397;23;20033;-84
2021/05/22 04:42:12;;;;;;;4.85;2.42;;;9.50;99.90;;;;;;6070076;23;20054;-84
2021/05/22 04:44:38;;;;;;;7.03;2.40;;;9.50;99.90;;;;;;6066768;23;20046;-83
2021/05/22 04:47:05;;;;;;;10.40;2.65;;;9.50;99.90;;;;;;6067215;23;20399;-84
2021/05/22 04:49:32;;;;;;;6.38;2.88;;;9.50;99.90;;;;;;6068337;23;20081;-84
2021/05/22 04:51:59;;;;;;;8.38;2.63;;;9.50;99.90;;;;;;6053481;23;20074;-84
2021/05/22 04:54:26;;;;;;;8.70;2.67;;;9.60;99.90;;;;;;6066684;23;20462;-85
2021/05/22 04:56:53;;;;;;;9.88;2.50;;;9.60;99.90;;;;;;6066823;23;20026;-84
2021/05/22 04:59:19;;;;;;;13.77;3.55;;;9.60;99.90;;;;;;6068056;23;20006;-85
2021/05/22 05:01:46;;;;;;;10.55;2.97;;;9.60;99.90;;;;;;6054809;23;20022;-84
2021/05/22 05:04:13;;;;;;;9.13;3.25;;;9.60;99.90;;;;;;6065976;23;20079;-84
2021/05/22 05:06:40;;;;;;;12.13;3.55;;;9.50;99.90;;;;;;6065918;23;20101;-85
2021/05/22 05:09:07;;;;;;;6.95;3.30;;;9.50;99.90;;;;;;6065834;23;20015;-85
2021/05/22 05:11:33;;;;;;;8.55;3.80;;;9.50;99.90;;;;;;6094594;23;20029;-85
2021/05/22 05:14:00;;;;;;;7.95;3.63;;;9.50;99.90;;;;;;6048494;23;20022;-84
2021/05/22 05:16:28;;;;;;;5.63;3.15;;;9.50;99.90;;;;;;6065686;23;20813;-85
2021/05/22 05:18:55;;;;;;;11.52;4.00;;;9.50;99.90;;;;;;6067952;23;20019;-84
2021/05/22 05:21:22;;;;;;;6.20;3.38;;;9.50;99.90;;;;;;6066311;23;20023;-85
2021/05/22 05:23:49;;;;;;;8.10;3.53;;;9.50;99.90;;;;;;6063999;23;20077;-85
2021/05/22 05:26:16;;;;;;;9.63;3.35;;;9.50;99.90;;;;;;6068426;23;20335;-85
2021/05/22 05:28:42;;;;;;;11.95;3.47;;;9.60;99.90;;;;;;6061882;23;20018;-85
2021/05/22 05:31:11;;;;;;;12.88;3.75;;;9.60;99.90;;;;;;6069675;23;20019;-85
2021/05/22 05:33:37;;;;;;;5.80;3.45;;;9.60;99.90;;;;;;6065765;23;20049;-84
2021/05/22 05:36:04;;;;;;;7.63;3.10;;;9.60;99.90;;;;;;6068782;23;20094;-84
2021/05/22 05:38:32;;;;;;;7.80;3.05;;;9.70;99.90;;;;;;6064966;23;20358;-83
2021/05/22 05:40:59;;;;;;;11.38;3.55;;;9.70;99.90;;;;;;6063388;23;20105;-83
2021/05/22 05:43:27;;;;;;;7.03;3.20;;;9.80;99.90;;;;;;6066129;23;20056;-84
2021/05/22 05:45:54;;;;;;;3.65;2.92;;;9.80;99.90;;;;;;6065944;23;20097;-83
2021/05/22 05:48:20;;;;;;;7.88;3.33;;;9.80;99.90;;;;;;6065002;23;20050;-83
2021/05/22 05:50:47;;;;;;;9.05;3.08;;;9.80;99.90;;;;;;6064238;23;20022;-83
2021/05/22 05:53:14;;;;;;;3.22;2.90;;;9.80;99.90;;;;;;6092939;23;20046;-83
2021/05/22 05:55:41;;;;;;;3.97;2.67;;;9.90;99.90;;;;;;6065030;23;20046;-84
2021/05/22 05:58:08;;;;;;;5.15;2.67;;;9.90;99.90;;;;;;6063602;23;20026;-83
2021/05/22 06:00:34;;;;;;;4.65;2.30;;;10.00;99.90;;;;;;6064231;23;20022;-84
2021/05/22 06:03:02;;;;;;;7.30;2.92;;;10.00;99.90;;;;;;6064592;23;20026;-84
2021/05/22 06:05:30;;;;;;;7.28;2.85;;;10.00;99.90;;;;;;6063458;23;20050;-83
2021/05/22 06:07:56;;;;;;;8.48;3.10;;;10.00;99.90;;;;;;6065395;23;20050;-84
2021/05/22 06:10:23;;;;;;;7.80;2.30;;;10.00;99.90;;;;;;6064952;23;20061;-84
2021/05/22 06:12:50;;;;;;;6.90;2.85;;;10.00;99.90;;;;;;6052760;23;20018;-84
2021/05/22 06:17:44;;;;;;;7.22;3.03;;;10.10;99.90;;;;;;6089912;23;20078;-84
2021/05/22 06:20:12;;;;;;;7.03;3.13;;;10.10;99.90;;;;;;6067811;23;20090;-85
2021/05/22 06:22:39;;;;;;;5.13;2.38;;;10.00;99.90;;;;;;6065501;23;20026;-85
2021/05/22 06:25:07;;;;;;;6.45;2.80;;;10.00;99.90;;;;;;6065759;23;20165;-85
2021/05/22 06:27:36;;;;;;;8.85;3.45;;;10.10;99.90;;;;;;6064590;23;20074;-84
2021/05/22 06:30:08;;;;;;;3.33;2.40;;;10.10;99.90;;;;;;6067602;23;20567;-84
2021/05/22 06:32:36;;;;;;;4.05;2.90;;;10.10;99.90;;;;;;6042514;23;20105;-84
2021/05/22 06:35:04;;;;;;;7.05;3.38;;;10.10;99.90;;;;;;6064557;23;20030;-84
2021/05/22 06:37:31;;;;;;;8.80;3.50;;;10.10;99.90;;;;;;6055716;23;20542;-84
2021/05/22 06:39:59;;;;;;;9.70;4.03;;;10.20;99.90;;;;;;6068305;23;24911;-84
2021/05/22 06:42:30;;;;;;;2.90;2.55;;;10.20;99.90;;;;;;6067231;23;20006;-84
2021/05/22 06:45:03;;;;;;;7.90;3.20;;;10.20;99.90;;;;;;6069382;23;20023;-84
2021/05/22 06:47:30;;;;;;;4.10;3.00;;;10.20;99.90;;;;;;6065325;23;20033;-85
2021/05/22 06:50:00;;;;;;;6.00;3.58;;;10.20;99.90;;;;;;6064874;23;20470;-85
2021/05/22 06:52:27;;;;;;;3.67;2.70;;;10.20;99.90;;;;;;6088460;23;20026;-84
2021/05/22 06:54:54;;;;;;;8.32;2.95;;;10.20;99.90;;;;;;6065687;23;20038;-84
2021/05/22 06:57:21;;;;;;;3.15;2.63;;;10.30;99.90;;;;;;6066130;23;20514;-83
2021/05/22 06:59:47;;;;;;;5.10;2.90;;;10.30;99.90;;;;;;6067334;23;20014;-84
2021/05/22 07:02:14;;;;;;;8.95;3.78;;;10.30;99.90;;;;;;6052472;23;20029;-84
2021/05/22 07:04:41;;;;;;;7.28;3.55;;;10.30;99.90;;;;;;6066037;23;20061;-85
2021/05/22 07:07:08;;;;;;;4.00;2.63;;;10.30;99.90;;;;;;6063273;23;20114;-84
2021/05/22 07:09:34;;;;;;;9.80;2.85;;;10.30;99.90;;;;;;6090510;23;20380;-85
2021/05/22 07:12:01;;;;;;;8.52;3.40;;;10.30;99.90;;;;;;6068658;23;20050;-85
2021/05/22 07:14:29;;;;;;;7.13;3.42;;;10.30;99.90;;;;;;6089448;23;20022;-84
2021/05/22 07:16:58;;;;;;;7.13;3.40;;;10.30;99.90;;;;;;6067606;23;20074;-84
2021/05/22 07:19:26;;;;;;;12.82;3.60;;;10.20;99.90;;;;;;6065827;23;20411;-84
2021/05/22 07:21:54;;;;;;;6.18;3.88;;;10.20;99.90;;;;;;6068565;23;20027;-85
2021/05/22 07:24:22;;;;;;;7.05;3.50;;;10.20;99.90;;;;;;6067608;23;20037;-85
2021/05/22 07:26:50;;;;;;;5.60;3.78;;;10.20;99.90;;;;;;6066687;23;20018;-85
2021/05/22 07:29:17;;;;;;;8.85;3.72;;;10.30;99.90;;;;;;6062910;23;20033;-84
2021/05/22 07:31:45;;;;;;;4.88;3.63;;;10.30;99.90;;;;;;6068317;23;20041;-84
2021/05/22 07:34:12;;;;;;;6.45;3.22;;;10.30;99.90;;;;;;6066934;23;20034;-84
2021/05/22 07:36:40;;;;;;;8.60;3.60;;;10.40;99.90;;;;;;6067039;23;20399;-85
2021/05/22 07:39:11;;;;;;;4.40;3.58;;;10.40;99.90;;;;;;6068202;23;20022;-85
2021/05/22 07:41:45;;;;;;;4.07;3.28;;;10.50;99.90;;;;;;6066204;23;20336;-85
2021/05/22 07:44:12;;;;;;;5.18;3.08;;;10.50;99.90;;;;;;6044313;23;20029;-85
2021/05/22 07:46:39;;;;;;;6.68;3.90;;;10.50;99.90;;;;;;6067571;23;20022;-85
2021/05/22 07:49:06;;;;;;;10.00;4.18;;;10.50;99.90;;;;;;6069375;23;20067;-84
2021/05/22 07:51:33;;;;;;;5.10;3.72;;;10.60;99.90;;;;;;6071184;23;20119;-85
2021/05/22 07:54:00;;;;;;;7.30;3.47;;;10.50;99.90;;;;;;6067655;23;20018;-84
2021/05/22 07:56:27;;;;;;;3.78;3.47;;;10.60;99.90;;;;;;6068120;23;20031;-86
2021/05/22 07:58:54;;;;;;;7.22;3.75;;;10.50;99.90;;;;;;6067371;23;20352;-85
2021/05/22 08:01:21;;;;;;;7.57;3.67;;;10.50;99.90;;;;;;6067884;23;20010;-85
2021/05/22 08:03:47;;;;;;;5.22;3.15;;;10.50;99.90;;;;;;6067591;23;20101;-84
2021/05/22 08:06:16;;;;;;;7.75;3.65;;;10.50;99.90;;;;;;6069106;23;20018;-85
2021/05/22 08:08:47;;;;;;;5.40;3.42;;;10.50;99.90;;;;;;6065440;23;20028;-85
2021/05/22 08:11:14;;;;;;;6.97;3.45;;;10.50;99.90;;;;;;6064978;23;20388;-84
2021/05/22 08:13:41;;;;;;;7.25;3.42;;;10.50;99.90;;;;;;6069518;23;20023;-84
2021/05/22 08:16:09;;;;;;;5.30;3.50;;;10.60;99.90;;;;;;6052517;23;20093;-84
2021/05/22 08:18:37;;;;;;;7.45;3.50;;;10.80;99.90;;;;;;6068070;23;20010;-84
2021/05/22 08:21:04;;;;;;;7.03;3.72;;;10.90;99.90;;;;;;6066131;23;20109;-84
2021/05/22 08:23:32;;;;;;;6.00;3.08;;;11.00;99.90;;;;;;6065800;23;20049;-84
2021/05/22 08:25:59;;;;;;;7.43;3.22;;;11.00;99.90;;;;;;6067363;23;20072;-84
2021/05/22 08:28:47;;;;;;;5.60;3.33;;;11.00;99.90;;;;;;6066940;23;20022;-84
2021/05/22 08:31:14;;;;;;;5.45;3.25;;;11.10;99.90;;;;;;6064878;23;20062;-82
2021/05/22 08:33:41;;;;;;;4.70;3.70;;;11.30;99.90;;;;;;6065657;23;20022;-83
2021/05/22 08:36:07;;;;;;;5.20;3.83;;;11.60;99.90;;;;;;6087415;23;20101;-83
2021/05/22 08:38:35;;;;;;;4.32;3.00;;;11.80;99.90;;;;;;6088531;23;20023;-83
2021/05/22 08:41:03;;;;;;;8.77;3.65;;;12.10;99.90;;;;;;6064326;23;20053;-83
2021/05/22 08:43:31;;;;;;;3.40;3.10;;;12.40;99.90;;;;;;6063091;23;20026;-83
2021/05/22 08:45:57;;;;;;;4.45;3.00;;;12.50;99.90;;;;;;6064879;23;20018;-84
2021/05/22 08:48:24;;;;;;;5.43;3.08;;;12.50;99.90;;;;;;6064827;23;20110;-84
2021/05/22 08:50:52;;;;;;;4.22;3.33;;;12.40;99.90;;;;;;6091507;23;20085;-84
2021/05/22 08:53:21;;;;;;;5.38;3.33;;;12.30;99.90;;;;;;6064297;23;20053;-84
2021/05/22 08:55:48;;;;;;;6.63;3.30;;;12.30;99.90;;;;;;6062018;23;20018;-84
2021/05/22 08:58:22;;;;;;;4.43;2.75;;;12.30;99.90;;;;;;6053948;23;20026;-84
2021/05/22 09:00:49;;;;;;;5.25;3.58;;;12.20;99.90;;;;;;6067408;23;20018;-84
2021/05/22 09:03:16;;;;;;;7.97;3.70;;;12.00;99.90;;;;;;6067572;23;20405;-84
2021/05/22 09:05:44;;;;;;;5.35;3.30;;;11.90;99.90;;;;;;6092257;23;20041;-84
2021/05/22 09:08:15;;;;;;;15.43;4.63;;;11.70;99.90;;;;;;6067050;23;20117;-84
2021/05/22 09:10:49;;;;;;;6.95;3.47;;;11.60;99.90;;;;;;6066056;23;20022;-84
2021/05/22 09:13:22;;;;;;;9.52;4.47;;;11.60;99.90;;;;;;6067594;23;20010;-84
2021/05/22 09:15:56;;;;;;;10.38;4.40;;;11.50;99.90;;;;;;6052883;23;20054;-84
2021/05/22 09:18:24;;;;;;;7.38;4.45;;;11.50;99.90;;;;;;6067014;23;20030;-84
2021/05/22 09:20:59;;;;;;;10.13;4.78;;;11.50;99.90;;;;;;6068105;23;20019;-84
2021/05/22 09:23:32;;;;;;;9.25;4.40;;;11.50;99.90;;;;;;6053029;23;20049;-84
2021/05/22 09:26:01;;;;;;;8.13;4.63;;;11.50;99.90;;;;;;6067410;23;20125;-84
2021/05/22 09:28:37;;;;;;;6.88;4.07;;;11.70;99.90;;;;;;6067710;23;20082;-85
2021/05/22 09:31:05;;;;;;;6.10;3.97;;;11.80;99.90;;;;;;6066554;23;20022;-84
2021/05/22 09:33:34;;;;;;;6.22;4.40;;;12.00;99.90;;;;;;6066330;23;20056;-84
2021/05/22 09:36:08;;;;;;;7.35;3.95;;;12.10;99.90;;;;;;6067693;23;20085;-84
2021/05/22 09:38:39;;;;;;;5.20;4.30;;;12.20;99.90;;;;;;6067056;23;20374;-84
2021/05/22 09:41:19;;;;;;;6.57;4.68;;;12.30;99.90;;;;;;6066987;23;20403;-84
2021/05/22 09:44:06;;;;;;;9.20;5.07;;;12.30;99.90;;;;;;6066218;23;20081;-84
2021/05/22 09:47:00;;;;;;;10.38;4.10;;;12.40;99.90;;;;;;6065539;23;20054;-84
2021/05/22 09:49:33;;;;;;;9.25;4.47;;;12.40;99.90;;;;;;6061618;23;20041;-83
2021/05/22 09:52:08;;;;;;;14.35;2.83;;;12.20;99.90;;;;;;6068140;23;20387;-84
2021/05/22 09:54:47;;;;;;;5.78;2.40;;;12.00;99.90;;;;;;6066639;23;20105;-84
2021/05/22 09:57:16;;;;;;;7.00;3.47;;;11.80;99.90;;;;;;6066582;23;20762;-84
2021/05/22 10:00:08;;;;;;;12.18;3.65;;;11.70;99.90;;;;;;6065128;23;20026;-84
2021/05/22 10:02:42;;;;;;;5.97;3.60;;;11.60;99.90;;;;;;6065839;23;20046;-84
2021/05/22 10:05:14;;;;;;;7.82;3.22;;;11.50;99.90;;;;;;6067878;23;20101;-83
2021/05/22 10:07:46;;;;;;;7.50;3.08;;;11.50;99.90;;;;;;6067358;23;20061;-84
2021/05/22 10:10:14;;;;;;;3.70;2.60;;;11.50;99.90;;;;;;6067088;23;20106;-84
2021/05/22 10:12:43;;;;;;;10.52;3.00;;;11.60;99.90;;;;;;6068543;23;20019;-84
2021/05/22 10:15:14;;;;;;;9.80;3.58;;;11.90;99.90;;;;;;6069003;23;20069;-84
2021/05/22 10:17:42;;;;;;;8.98;5.05;;;12.30;99.90;;;;;;6069645;23;20022;-84
2021/05/22 10:20:14;;;;;;;8.38;4.70;;;12.70;99.90;;;;;;6070388;23;20018;-84
2021/05/22 10:22:42;;;;;;;9.02;5.13;;;13.00;99.90;;;;;;6092313;23;20320;-84
2021/05/22 10:25:10;;;;;;;5.20;3.90;;;13.30;99.90;;;;;;6065529;23;20057;-83
2021/05/22 10:27:37;;;;;;;3.05;1.95;;;13.40;99.90;;;;;;6067881;23;20018;-83
2021/05/22 10:30:07;;;;;;;3.17;1.98;;;13.60;99.90;;;;;;6067797;23;20398;-85
2021/05/22 10:32:34;;;;;;;3.50;2.05;;;13.70;99.90;;;;;;6062903;23;20026;-83
2021/05/22 10:35:10;;;;;;;4.50;2.72;;;13.90;99.90;;;;;;6067269;23;20093;-83
2021/05/22 10:37:45;;;;;;;3.25;2.35;;;14.10;99.90;;;;;;6065555;23;20053;-83
2021/05/22 10:40:22;;;;;;;4.72;2.00;;;14.30;99.90;;;;;;6053807;23;20058;-84
2021/05/22 10:42:55;;;;;;;8.32;2.00;;;14.40;99.90;;;;;;6052701;23;20030;-83
2021/05/22 10:45:37;;;;;;;3.15;1.35;;;14.40;99.90;;;;;;6066012;23;20089;-83
2021/05/22 10:48:17;;;;;;;2.85;1.27;;;14.30;99.90;;;;;;6066240;23;20018;-84
2021/05/22 10:50:48;;;;;;;2.25;1.52;;;14.20;99.90;;;;;;6063883;23;20038;-83
2021/05/22 10:53:25;;;;;;;5.30;1.70;;;14.10;99.90;;;;;;6089922;23;20022;-84
2021/05/22 10:56:15;;;;;;;3.78;1.80;;;14.10;99.90;;;;;;6065486;23;20018;-84
2021/05/22 10:59:09;;;;;;;3.65;2.50;;;14.10;99.90;;;;;;6068892;23;20447;-83
2021/05/22 11:01:36;;;;;;;5.05;2.78;;;14.20;99.90;;;;;;6058404;23;20089;-83
2021/05/22 11:04:14;;;;;;;5.32;2.80;;;14.10;99.90;;;;;;6076707;23;20022;-83
2021/05/22 11:07:15;;;;;;;5.25;2.30;;;14.10;99.90;;;;;;6063118;23;20022;-83
2021/05/22 11:09:43;;;;;;;6.78;3.55;;;14.20;99.90;;;;;;6061970;23;20022;-83
2021/05/22 11:12:09;;;;;;;5.57;3.10;;;14.20;99.90;;;;;;6063234;23;20067;-83
2021/05/22 11:14:40;;;;;;;8.15;3.60;;;14.10;99.90;;;;;;6065643;23;20074;-83
2021/05/22 11:17:21;;;;;;;6.60;3.50;;;13.80;99.90;;;;;;6064567;23;20112;-83
2021/05/22 11:20:01;;;;;;;8.60;3.47;;;13.60;99.90;;;;;;6062914;23;20010;-83
2021/05/22 11:23:14;;;;;;;8.27;3.40;;;13.40;99.90;;;;;;6064637;23;20526;-83
2021/05/22 11:25:49;;;;;;;8.35;3.60;;;13.50;99.90;;;;;;6083023;23;20375;-83
2021/05/22 11:28:18;;;;;;;8.00;2.70;;;13.90;99.90;;;;;;6062263;23;20470;-83
2021/05/22 11:30:47;;;;;;;8.05;2.70;;;14.30;99.90;;;;;;6044531;23;20077;-82
2021/05/22 11:33:23;;;;;;;4.85;2.53;;;14.50;99.90;;;;;;6063934;23;20105;-82
2021/05/22 11:35:52;;;;;;;3.40;2.20;;;14.70;99.90;;;;;;6063169;23;20133;-83
2021/05/22 11:38:19;;;;;;;5.93;2.25;;;15.00;99.90;;;;;;6062721;23;20022;-82
2021/05/22 11:40:58;;;;;;;3.90;1.88;;;15.20;99.90;;;;;;6088561;23;20041;-82
2021/05/22 11:43:31;;;;;;;4.53;1.98;;;15.50;99.90;;;;;;6088314;23;20023;-82
2021/05/22 11:46:07;;;;;;;6.57;2.50;;;15.70;99.90;;;;;;6063960;23;20051;-82
2021/05/22 11:48:42;;;;;;;4.80;1.83;;;16.00;99.90;;;;;;6061779;23;20487;-83
2021/05/22 11:51:20;;;;;;;7.82;1.60;;;16.50;99.90;;;;;;6063144;23;20022;-82
2021/05/22 11:54:03;;;;;;;6.05;1.60;;;16.40;99.90;;;;;;6062980;23;20481;-82
2021/05/22 11:56:35;;;;;;;7.57;2.28;;;16.10;99.90;;;;;;6088527;23;20038;-82
2021/05/22 11:59:05;;;;;;;4.63;1.60;;;15.70;99.90;;;;;;6063962;23;20030;-82
2021/05/22 12:01:38;;;;;;;8.90;1.98;;;15.60;99.90;;;;;;6063665;23;20101;-82
2021/05/22 12:04:10;;;;;;;10.63;2.50;;;15.50;99.90;;;;;;6063115;23;20018;-83
2021/05/22 12:06:43;;;;;;;8.95;2.33;;;15.90;99.90;;;;;;6064250;23;20097;-83
2021/05/22 12:09:15;;;;;;;7.60;1.30;;;16.10;99.90;;;;;;6087985;23;20006;-82
2021/05/22 12:12:07;;;;;;;4.25;1.23;;;16.20;99.90;;;;;;6061989;23;20109;-82
2021/05/22 12:14:40;;;;;;;5.38;1.63;;;16.00;99.90;;;;;;6064211;23;20106;-82
2021/05/22 12:17:07;;;;;;;6.05;1.80;;;15.70;99.90;;;;;;6074557;23;20058;-82
2021/05/22 12:19:39;;;;;;;7.18;2.47;;;15.50;99.90;;;;;;6051367;23;20034;-82
2021/05/22 12:22:09;;;;;;;7.68;1.95;;;15.30;99.90;;;;;;6061782;23;20050;-82
2021/05/22 12:24:38;;;;;;;5.50;2.50;;;15.20;99.90;;;;;;6061990;23;20022;-82
2021/05/22 12:27:05;;;;;;;3.97;1.63;;;15.40;99.90;;;;;;6087611;23;20156;-82
2021/05/22 12:29:32;;;;;;;6.05;1.80;;;15.50;99.90;;;;;;6059124;23;20030;-82
2021/05/22 12:32:05;;;;;;;7.25;1.88;;;15.50;99.90;;;;;;6089006;23;20046;-82
2021/05/22 12:34:36;;;;;;;8.70;1.70;;;15.60;99.90;;;;;;6064059;23;20026;-82
2021/05/22 12:37:08;;;;;;;4.30;1.70;;;15.90;99.90;;;;;;6064013;23;20030;-82
2021/05/22 12:39:36;;;;;;;7.85;1.75;;;16.30;99.90;;;;;;6063878;23;20026;-81
2021/05/22 12:42:21;;;;;;;5.68;2.30;;;16.00;99.90;;;;;;6089863;23;20086;-82
2021/05/22 12:44:53;;;;;;;7.25;1.88;;;15.50;99.90;;;;;;6065563;23;20347;-82
2021/05/22 12:47:23;;;;;;;6.43;2.10;;;14.90;99.90;;;;;;6040522;23;20010;-82
2021/05/22 12:49:58;;;;;;;6.13;2.20;;;14.50;99.90;;;;;;6061424;23;20046;-82
2021/05/22 12:52:26;;;;;;;16.50;2.25;;;14.40;99.90;;;;;;6066147;23;20126;-82
2021/05/22 12:54:55;;;;;;;6.55;2.20;;;14.40;99.90;;;;;;6062759;23;20097;-82
2021/05/22 12:57:33;;;;;;;8.45;2.33;;;14.20;99.90;;;;;;6065214;23;20725;-83
2021/05/22 13:00:00;;;;;;;6.53;1.70;;;14.00;99.90;;;;;;6091236;23;20026;-82
2021/05/22 13:02:28;;;;;;;5.72;2.00;;;13.90;99.90;;;;;;6065313;23;20033;-82
2021/05/22 13:05:10;;;;;;;9.10;2.15;;;14.20;99.90;;;;;;6062289;23;20053;-83